Ninkasi — ZGAA5 — position and weather

sailwx.info

Track history (hours):
 
Tides and Currents Weather Stations Pressure Air Temp Water Temp Dewpoint Dewpoint Depression Visibility Wind Speed Wind Dir Waves Ship Positions

Ninkasi

Last reported at 2017-Oct-15 23:53 UTC. Time now 2017-Oct-17 01:19 UTC.
Position N 37°42' W 029°14'.

Length 43 m; draft 2.7 m.

Type: Pleasure craft. MMSI: 319030900.

Date/timePositionNaut miles runAvg speedWind from/ knotsBaromVisibWave heightAir tempDewpointWater temp
2017-Oct-15 23:53N 37°42' W 029°14'410.0
2017-Oct-15 23:27N 37°46' W 029°12'810.1
2017-Oct-15 22:40N 37°53' W 029°06'310.0
2017-Oct-15 22:24N 37°55' W 029°04'5 9.9
2017-Oct-15 21:54N 37°59' W 029°01'10 9.8
2017-Oct-15 20:54N 38°08' W 028°55'5 9.9
2017-Oct-15 20:26N 38°12' W 028°52'23 8.6
2017-Oct-15 17:44N 38°32' W 028°38'0 0.0
2017-Oct-15 17:30N 38°32' W 028°38'0 0.0
2017-Oct-15 16:53N 38°32' W 028°38'0 0.0
2017-Oct-15 16:30N 38°32' W 028°38'0 0.0
2017-Oct-15 16:00N 38°32' W 028°38'0 0.0
2017-Oct-15 15:30N 38°32' W 028°38'0 0.0
2017-Oct-14 18:28N 38°32' W 028°38'0 0.0
2017-Oct-14 07:31N 38°32' W 028°38'0 0.0
2017-Oct-14 05:48N 38°32' W 028°38'0 0.0
2017-Oct-13 19:35N 38°32' W 028°38'0 0.0
2017-Oct-13 19:28N 38°32' W 028°38'0 0.0
2017-Oct-13 18:54N 38°32' W 028°38'0 0.0
2017-Oct-13 18:30N 38°32' W 028°38'0 0.0
2017-Oct-13 18:00N 38°32' W 028°38'0 0.0
2017-Oct-13 17:29N 38°32' W 028°38'0 0.0
2017-Oct-13 17:00N 38°32' W 028°38'0 0.0
2017-Oct-13 16:29N 38°32' W 028°38'0 0.0
2017-Oct-13 16:00N 38°32' W 028°38'0 0.0
2017-Oct-13 15:17N 38°32' W 028°38'0 0.0
2017-Oct-13 14:59N 38°32' W 028°38'0 0.0
2017-Oct-13 14:29N 38°32' W 028°38'0 0.0
2017-Oct-13 14:00N 38°32' W 028°38'0 0.0
2017-Oct-13 13:30N 38°32' W 028°38'0 0.0
2017-Oct-13 13:00N 38°32' W 028°38'0 0.0
2017-Oct-13 12:25N 38°32' W 028°38'0 0.0
2017-Oct-13 11:59N 38°32' W 028°38'0 0.0
2017-Oct-13 11:30N 38°32' W 028°38'0 0.0
2017-Oct-13 11:00N 38°32' W 028°38'0 0.0
2017-Oct-13 10:30N 38°32' W 028°38'0 0.3
2017-Oct-13 10:01N 38°32' W 028°37'0 0.0
2017-Oct-13 09:29N 38°32' W 028°37'0 0.0
2017-Oct-13 09:00N 38°32' W 028°37'0 0.0
2017-Oct-13 08:24N 38°32' W 028°37'0 0.0
2017-Oct-13 07:57N 38°32' W 028°37'0 0.0
2017-Oct-13 07:30N 38°32' W 028°37'0 0.0
2017-Oct-13 06:57N 38°32' W 028°37'0 0.0
2017-Oct-13 06:30N 38°32' W 028°37'0 0.0
2017-Oct-13 05:59N 38°32' W 028°37'0 0.0
2017-Oct-13 05:30N 38°32' W 028°37'0 0.0
2017-Oct-13 04:57N 38°32' W 028°37'0 0.0
2017-Oct-13 04:29N 38°32' W 028°37'0 0.0
2017-Oct-13 04:00N 38°32' W 028°37'0 0.0
2017-Oct-13 03:25N 38°32' W 028°37'0 0.0
2017-Oct-13 02:46N 38°32' W 028°37'0 0.0
2017-Oct-13 02:30N 38°32' W 028°37'0 0.0
2017-Oct-13 01:53N 38°32' W 028°37'0 0.0
2017-Oct-13 01:30N 38°32' W 028°37'0 0.0
2017-Oct-13 01:01N 38°32' W 028°37'0 0.0
2017-Oct-13 00:30N 38°32' W 028°37'0 0.0
2017-Oct-13 00:00N 38°32' W 028°37'0 0.0
2017-Oct-12 23:22N 38°32' W 028°37'0 0.0
2017-Oct-12 22:53N 38°32' W 028°37'0 0.0
2017-Oct-12 22:26N 38°32' W 028°37'0 0.0
2017-Oct-12 21:48N 38°32' W 028°37'0 0.0
2017-Oct-12 21:29N 38°32' W 028°37'0 0.0
2017-Oct-12 20:59N 38°32' W 028°37'0 0.0
2017-Oct-12 20:25N 38°32' W 028°37'2 3.0
2017-Oct-12 19:49N 38°33' W 028°35'614.2
2017-Oct-12 19:24N 38°35' W 028°28'513.7
2017-Oct-12 19:00N 38°34' W 028°22'714.6
2017-Oct-12 18:30N 38°32' W 028°12'714.2
2017-Oct-12 18:00N 38°31' W 028°04'714.1
2017-Oct-12 17:30N 38°29' W 027°55'713.9
2017-Oct-12 17:00N 38°28' W 027°46'714.5
2017-Oct-12 16:31N 38°28' W 027°37'714.7
2017-Oct-12 16:00N 38°27' W 027°28'914.9
2017-Oct-12 15:22N 38°27' W 027°15'514.5
2017-Oct-12 15:00N 38°26' W 027°09'914.5
2017-Oct-12 14:24N 38°26' W 026°58'614.5
2017-Oct-12 13:59N 38°25' W 026°50'714.6
2017-Oct-12 13:30N 38°25' W 026°41'714.9
2017-Oct-12 13:00N 38°24' W 026°31'714.8
2017-Oct-12 12:30N 38°24' W 026°22'714.6
2017-Oct-12 12:00N 38°23' W 026°13'714.2
2017-Oct-12 11:30N 38°23' W 026°04'714.0
2017-Oct-12 11:00N 38°22' W 025°55'714.3
2017-Oct-12 10:30N 38°22' W 025°46'714.2
2017-Oct-12 10:00N 38°21' W 025°37'713.8
2017-Oct-12 09:30N 38°21' W 025°28'713.7
2017-Oct-12 09:00N 38°20' W 025°19'714.2
2017-Oct-12 08:30N 38°19' W 025°10'714.4
2017-Oct-12 08:00N 38°19' W 025°01'714.1
2017-Oct-12 07:30N 38°18' W 024°52'714.2
2017-Oct-12 07:00N 38°18' W 024°43'714.7
2017-Oct-12 06:30N 38°17' W 024°34'714.4
2017-Oct-12 06:00N 38°16' W 024°25'714.1
2017-Oct-12 05:30N 38°15' W 024°16'714.0
2017-Oct-12 05:00N 38°15' W 024°07'714.3
2017-Oct-12 04:30N 38°14' W 023°58'39613.8
2017-Oct-10 23:50N 37°18' W 015°42'1612.2
2017-Oct-10 22:33N 37°15' W 015°23'113.4
2017-Oct-10 22:28N 37°15' W 015°21'713.3
2017-Oct-10 21:58N 37°14' W 015°13'913.6
2017-Oct-10 21:20N 37°12' W 015°02'513.7
2017-Oct-10 21:00N 37°11' W 014°57'1513.9
2017-Oct-10 19:56N 37°08' W 014°39'913.5
2017-Oct-10 19:15N 37°06' W 014°27'313.4
2017-Oct-10 19:00N 37°06' W 014°23'713.6
2017-Oct-10 18:30N 37°04' W 014°15'713.7
2017-Oct-10 18:00N 37°03' W 014°06'1914.4
2017-Oct-10 16:43N 36°59' W 013°44'314.7
2017-Oct-10 16:31N 36°59' W 013°40'814.5
2017-Oct-10 15:59N 36°57' W 013°30'714.1
2017-Oct-10 15:31N 36°56' W 013°22'714.1
2017-Oct-10 15:00N 36°54' W 013°14'1514.0
2017-Oct-10 13:54N 36°51' W 012°55'1214.1
2017-Oct-10 13:02N 36°48' W 012°40'113.8
2017-Oct-10 12:57N 36°48' W 012°38'613.7
2017-Oct-10 12:31N 36°47' W 012°31'713.8
2017-Oct-10 12:00N 36°45' W 012°22'714.1
2017-Oct-10 11:30N 36°44' W 012°14'714.0
2017-Oct-10 11:01N 36°42' W 012°05'713.8
2017-Oct-10 10:30N 36°41' W 011°57'713.3
2017-Oct-10 10:00N 36°39' W 011°49'613.1
2017-Oct-10 09:30N 36°38' W 011°41'713.2
2017-Oct-10 09:00N 36°36' W 011°33'713.5
2017-Oct-10 08:30N 36°34' W 011°25'713.4
2017-Oct-10 08:00N 36°33' W 011°17'713.6
2017-Oct-10 07:30N 36°31' W 011°09'713.4
2017-Oct-10 07:00N 36°30' W 011°01'713.5
2017-Oct-10 06:30N 36°28' W 010°52'713.8
2017-Oct-10 06:00N 36°27' W 010°44'713.8
2017-Oct-10 05:30N 36°25' W 010°36'713.7
2017-Oct-10 05:00N 36°23' W 010°27'713.5
2017-Oct-10 04:31N 36°22' W 010°19'713.8
2017-Oct-10 04:00N 36°20' W 010°11'713.9
2017-Oct-10 03:30N 36°19' W 010°03'714.0
2017-Oct-10 03:00N 36°17' W 009°54'714.1
2017-Oct-10 02:31N 36°15' W 009°46'714.0
2017-Oct-10 02:01N 36°13' W 009°37'713.6
2017-Oct-10 01:31N 36°12' W 009°29'713.6
2017-Oct-10 01:00N 36°11' W 009°21'713.7
2017-Oct-10 00:30N 36°09' W 009°12'713.5
2017-Oct-10 00:00N 36°09' W 009°04'713.3
2017-Oct-09 23:28N 36°08' W 008°55'713.8
2017-Oct-09 22:58N 36°08' W 008°47'3013.8
2017-Oct-09 20:51N 36°05' W 008°10'513.8
2017-Oct-09 20:30N 36°05' W 008°05'714.1
2017-Oct-09 20:01N 36°05' W 007°56'714.2
2017-Oct-09 19:30N 36°04' W 007°47'714.0
2017-Oct-09 19:00N 36°03' W 007°39'714.2
2017-Oct-09 18:30N 36°03' W 007°30'714.2
2017-Oct-09 18:00N 36°02' W 007°21'714.1
2017-Oct-09 17:31N 36°02' W 007°12'714.3
2017-Oct-09 17:00N 36°02' W 007°03'1414.2
2017-Oct-09 16:01N 36°01' W 006°46'29610.0
2017-Oct-08 10:25N 37°13' W 000°48'512.7
2017-Oct-08 10:00N 37°16' W 000°43'19012.2
2017-Oct-07 18:20N 39°18' E 002°24'412.1
2017-Oct-07 18:00N 39°21' E 002°27'612.2
2017-Oct-07 17:30N 39°25' E 002°32'612.3
2017-Oct-07 17:00N 39°30' E 002°37'3 6.5
2017-Oct-07 16:30N 39°34' E 002°38'0 0.5
2017-Oct-07 15:59N 39°34' E 002°38'0 0.0
2017-Oct-07 15:29N 39°34' E 002°38'0 0.0
2017-Oct-07 14:59N 39°34' E 002°38'0 0.0
2017-Oct-07 14:29N 39°34' E 002°38'0 0.0
2017-Oct-07 13:59N 39°34' E 002°38'0 0.0
2017-Oct-07 13:29N 39°34' E 002°38'0 0.0
2017-Oct-07 12:59N 39°34' E 002°38'0 0.0
2017-Oct-07 12:29N 39°34' E 002°38'0 0.0
2017-Oct-07 11:59N 39°34' E 002°38'0 0.0
2017-Oct-07 11:29N 39°34' E 002°38'0 0.0
2017-Oct-07 10:59N 39°34' E 002°38'0 0.0
2017-Oct-07 10:29N 39°34' E 002°38'0 0.0
2017-Oct-07 09:59N 39°34' E 002°38'0 0.0
2017-Oct-07 09:29N 39°34' E 002°38'0 0.0
2017-Oct-07 08:59N 39°34' E 002°38'0 0.0
2017-Oct-07 08:29N 39°34' E 002°38'0 0.0
2017-Oct-07 07:59N 39°34' E 002°38'0 0.0
2017-Oct-07 07:29N 39°34' E 002°38'0 0.0
2017-Oct-07 06:59N 39°34' E 002°38'0 0.0
2017-Oct-07 06:29N 39°34' E 002°38'0 0.0
2017-Oct-07 05:59N 39°34' E 002°38'0 0.0
2017-Oct-07 05:29N 39°34' E 002°38'0 0.0
2017-Oct-07 04:59N 39°34' E 002°38'0 0.0
2017-Oct-07 04:29N 39°34' E 002°38'0 0.0
2017-Oct-07 03:59N 39°34' E 002°38'0 0.0
2017-Oct-07 03:29N 39°34' E 002°38'0 0.0
2017-Oct-07 02:59N 39°34' E 002°38'0 0.0
2017-Oct-07 02:29N 39°34' E 002°38'0 0.0
2017-Oct-07 01:59N 39°34' E 002°38'0 0.0
2017-Oct-07 01:29N 39°34' E 002°38'0 0.0
2017-Oct-07 00:59N 39°34' E 002°38'0 0.0
2017-Oct-07 00:29N 39°34' E 002°38'0 0.0
2017-Oct-06 23:59N 39°34' E 002°38'0 0.0
2017-Oct-06 23:29N 39°34' E 002°38'0 0.0
2017-Oct-06 22:59N 39°34' E 002°38'0 0.0
2017-Oct-06 22:29N 39°34' E 002°38'0 0.0
2017-Oct-06 21:59N 39°34' E 002°38'0 0.0
2017-Oct-06 21:29N 39°34' E 002°38'0 0.0
2017-Oct-06 20:59N 39°34' E 002°38'0 0.0
2017-Oct-06 20:29N 39°34' E 002°38'0 0.0
2017-Oct-06 19:59N 39°34' E 002°38'0 0.0
2017-Oct-06 19:29N 39°34' E 002°38'0 0.0
2017-Oct-06 18:59N 39°34' E 002°38'0 0.0
2017-Oct-06 18:29N 39°34' E 002°38'0 0.0
2017-Oct-06 17:56N 39°34' E 002°38'0 0.0
2017-Oct-06 17:29N 39°34' E 002°38'0 0.0
2017-Oct-06 16:59N 39°34' E 002°38'0 0.0
2017-Oct-06 16:29N 39°34' E 002°38'0 0.1
2017-Oct-06 15:59N 39°34' E 002°38'0 0.1
2017-Oct-06 15:29N 39°34' E 002°38'0 0.0
2017-Oct-06 14:59N 39°34' E 002°38'0 0.0
2017-Oct-06 14:29N 39°34' E 002°38'0 0.0
2017-Oct-06 13:59N 39°34' E 002°38'0 0.0
2017-Oct-06 13:29N 39°34' E 002°38'0 0.0
2017-Oct-06 12:59N 39°34' E 002°38'0 0.0
2017-Oct-06 12:29N 39°34' E 002°38'0 0.0
2017-Oct-06 11:59N 39°34' E 002°38'0 0.0
2017-Oct-06 11:29N 39°34' E 002°38'0 0.0
2017-Oct-06 10:59N 39°34' E 002°38'0 0.0
2017-Oct-06 10:29N 39°34' E 002°38'0 0.0
2017-Oct-06 09:59N 39°34' E 002°38'0 0.0
2017-Oct-06 09:29N 39°34' E 002°38'0 0.0
2017-Oct-06 08:59N 39°34' E 002°38'0 0.0
2017-Oct-06 08:29N 39°34' E 002°38'0 0.0
2017-Oct-06 07:59N 39°34' E 002°38'0 0.0
2017-Oct-06 07:29N 39°34' E 002°38'0 0.0
2017-Oct-06 06:59N 39°34' E 002°38'0 0.0
2017-Oct-06 06:29N 39°34' E 002°38'0 0.0
2017-Oct-06 05:59N 39°34' E 002°38'0 0.0
2017-Oct-06 05:29N 39°34' E 002°38'0 0.0
2017-Oct-06 04:59N 39°34' E 002°38'0 0.0
2017-Oct-06 04:29N 39°34' E 002°38'0 0.0
2017-Oct-06 03:59N 39°34' E 002°38'0 0.0
2017-Oct-06 03:29N 39°34' E 002°38'0 0.0
2017-Oct-06 02:59N 39°34' E 002°38'0 0.0
2017-Oct-06 02:29N 39°34' E 002°38'0 0.0
2017-Oct-06 01:59N 39°34' E 002°38'0 0.0
2017-Oct-06 01:29N 39°34' E 002°38'0 0.0
2017-Oct-06 00:56N 39°34' E 002°38'0 0.0
2017-Oct-06 00:29N 39°34' E 002°38'0 0.0
2017-Oct-05 23:59N 39°34' E 002°38'  
Track history (hours):
 
Tides and Currents Weather Stations Pressure Air Temp Water Temp Dewpoint Dewpoint Depression Visibility Wind Speed Wind Dir Waves Ship Positions

Ninkasi

Last reported at 2017-Oct-15 23:53 UTC. Time now 2017-Oct-17 01:19 UTC.
Position N 37°42' W 029°14'.

Length 43 m; draft 2.7 m.

Type: Pleasure craft. MMSI: 319030900.

Date/timePositionNaut miles runAvg speedWind from/ knotsBaromVisibWave heightAir tempDewpointWater temp
2017-Oct-15 23:53N 37°42' W 029°14'410.0
2017-Oct-15 23:27N 37°46' W 029°12'810.1
2017-Oct-15 22:40N 37°53' W 029°06'310.0
2017-Oct-15 22:24N 37°55' W 029°04'5 9.9
2017-Oct-15 21:54N 37°59' W 029°01'10 9.8
2017-Oct-15 20:54N 38°08' W 028°55'5 9.9
2017-Oct-15 20:26N 38°12' W 028°52'23 8.6
2017-Oct-15 17:44N 38°32' W 028°38'0 0.0
2017-Oct-15 17:30N 38°32' W 028°38'0 0.0
2017-Oct-15 16:53N 38°32' W 028°38'0 0.0
2017-Oct-15 16:30N 38°32' W 028°38'0 0.0
2017-Oct-15 16:00N 38°32' W 028°38'0 0.0
2017-Oct-15 15:30N 38°32' W 028°38'0 0.0
2017-Oct-14 18:28N 38°32' W 028°38'0 0.0
2017-Oct-14 07:31N 38°32' W 028°38'0 0.0
2017-Oct-14 05:48N 38°32' W 028°38'0 0.0
2017-Oct-13 19:35N 38°32' W 028°38'0 0.0
2017-Oct-13 19:28N 38°32' W 028°38'0 0.0
2017-Oct-13 18:54N 38°32' W 028°38'0 0.0
2017-Oct-13 18:30N 38°32' W 028°38'0 0.0
2017-Oct-13 18:00N 38°32' W 028°38'0 0.0
2017-Oct-13 17:29N 38°32' W 028°38'0 0.0
2017-Oct-13 17:00N 38°32' W 028°38'0 0.0
2017-Oct-13 16:29N 38°32' W 028°38'0 0.0
2017-Oct-13 16:00N 38°32' W 028°38'0 0.0
2017-Oct-13 15:17N 38°32' W 028°38'0 0.0
2017-Oct-13 14:59N 38°32' W 028°38'0 0.0
2017-Oct-13 14:29N 38°32' W 028°38'0 0.0
2017-Oct-13 14:00N 38°32' W 028°38'0 0.0
2017-Oct-13 13:30N 38°32' W 028°38'0 0.0
2017-Oct-13 13:00N 38°32' W 028°38'0 0.0
2017-Oct-13 12:25N 38°32' W 028°38'0 0.0
2017-Oct-13 11:59N 38°32' W 028°38'0 0.0
2017-Oct-13 11:30N 38°32' W 028°38'0 0.0
2017-Oct-13 11:00N 38°32' W 028°38'0 0.0
2017-Oct-13 10:30N 38°32' W 028°38'0 0.3
2017-Oct-13 10:01N 38°32' W 028°37'0 0.0
2017-Oct-13 09:29N 38°32' W 028°37'0 0.0
2017-Oct-13 09:00N 38°32' W 028°37'0 0.0
2017-Oct-13 08:24N 38°32' W 028°37'0 0.0
2017-Oct-13 07:57N 38°32' W 028°37'0 0.0
2017-Oct-13 07:30N 38°32' W 028°37'0 0.0
2017-Oct-13 06:57N 38°32' W 028°37'0 0.0
2017-Oct-13 06:30N 38°32' W 028°37'0 0.0
2017-Oct-13 05:59N 38°32' W 028°37'0 0.0
2017-Oct-13 05:30N 38°32' W 028°37'0 0.0
2017-Oct-13 04:57N 38°32' W 028°37'0 0.0
2017-Oct-13 04:29N 38°32' W 028°37'0 0.0
2017-Oct-13 04:00N 38°32' W 028°37'0 0.0
2017-Oct-13 03:25N 38°32' W 028°37'0 0.0
2017-Oct-13 02:46N 38°32' W 028°37'0 0.0
2017-Oct-13 02:30N 38°32' W 028°37'0 0.0
2017-Oct-13 01:53N 38°32' W 028°37'0 0.0
2017-Oct-13 01:30N 38°32' W 028°37'0 0.0
2017-Oct-13 01:01N 38°32' W 028°37'0 0.0
2017-Oct-13 00:30N 38°32' W 028°37'0 0.0
2017-Oct-13 00:00N 38°32' W 028°37'0 0.0
2017-Oct-12 23:22N 38°32' W 028°37'0 0.0
2017-Oct-12 22:53N 38°32' W 028°37'0 0.0
2017-Oct-12 22:26N 38°32' W 028°37'0 0.0
2017-Oct-12 21:48N 38°32' W 028°37'0 0.0
2017-Oct-12 21:29N 38°32' W 028°37'0 0.0
2017-Oct-12 20:59N 38°32' W 028°37'0 0.0
2017-Oct-12 20:25N 38°32' W 028°37'2 3.0
2017-Oct-12 19:49N 38°33' W 028°35'614.2
2017-Oct-12 19:24N 38°35' W 028°28'513.7
2017-Oct-12 19:00N 38°34' W 028°22'714.6
2017-Oct-12 18:30N 38°32' W 028°12'714.2
2017-Oct-12 18:00N 38°31' W 028°04'714.1
2017-Oct-12 17:30N 38°29' W 027°55'713.9
2017-Oct-12 17:00N 38°28' W 027°46'714.5
2017-Oct-12 16:31N 38°28' W 027°37'714.7
2017-Oct-12 16:00N 38°27' W 027°28'914.9
2017-Oct-12 15:22N 38°27' W 027°15'514.5
2017-Oct-12 15:00N 38°26' W 027°09'914.5
2017-Oct-12 14:24N 38°26' W 026°58'614.5
2017-Oct-12 13:59N 38°25' W 026°50'714.6
2017-Oct-12 13:30N 38°25' W 026°41'714.9
2017-Oct-12 13:00N 38°24' W 026°31'714.8
2017-Oct-12 12:30N 38°24' W 026°22'714.6
2017-Oct-12 12:00N 38°23' W 026°13'714.2
2017-Oct-12 11:30N 38°23' W 026°04'714.0
2017-Oct-12 11:00N 38°22' W 025°55'714.3
2017-Oct-12 10:30N 38°22' W 025°46'714.2
2017-Oct-12 10:00N 38°21' W 025°37'713.8
2017-Oct-12 09:30N 38°21' W 025°28'713.7
2017-Oct-12 09:00N 38°20' W 025°19'714.2
2017-Oct-12 08:30N 38°19' W 025°10'714.4
2017-Oct-12 08:00N 38°19' W 025°01'714.1
2017-Oct-12 07:30N 38°18' W 024°52'714.2
2017-Oct-12 07:00N 38°18' W 024°43'714.7
2017-Oct-12 06:30N 38°17' W 024°34'714.4
2017-Oct-12 06:00N 38°16' W 024°25'714.1
2017-Oct-12 05:30N 38°15' W 024°16'714.0
2017-Oct-12 05:00N 38°15' W 024°07'714.3
2017-Oct-12 04:30N 38°14' W 023°58'39613.8
2017-Oct-10 23:50N 37°18' W 015°42'1612.2
2017-Oct-10 22:33N 37°15' W 015°23'113.4
2017-Oct-10 22:28N 37°15' W 015°21'713.3
2017-Oct-10 21:58N 37°14' W 015°13'913.6
2017-Oct-10 21:20N 37°12' W 015°02'513.7
2017-Oct-10 21:00N 37°11' W 014°57'1513.9
2017-Oct-10 19:56N 37°08' W 014°39'913.5
2017-Oct-10 19:15N 37°06' W 014°27'313.4
2017-Oct-10 19:00N 37°06' W 014°23'713.6
2017-Oct-10 18:30N 37°04' W 014°15'713.7
2017-Oct-10 18:00N 37°03' W 014°06'1914.4
2017-Oct-10 16:43N 36°59' W 013°44'314.7
2017-Oct-10 16:31N 36°59' W 013°40'814.5
2017-Oct-10 15:59N 36°57' W 013°30'714.1
2017-Oct-10 15:31N 36°56' W 013°22'714.1
2017-Oct-10 15:00N 36°54' W 013°14'1514.0
2017-Oct-10 13:54N 36°51' W 012°55'1214.1
2017-Oct-10 13:02N 36°48' W 012°40'113.8
2017-Oct-10 12:57N 36°48' W 012°38'613.7
2017-Oct-10 12:31N 36°47' W 012°31'713.8
2017-Oct-10 12:00N 36°45' W 012°22'714.1
2017-Oct-10 11:30N 36°44' W 012°14'714.0
2017-Oct-10 11:01N 36°42' W 012°05'713.8
2017-Oct-10 10:30N 36°41' W 011°57'713.3
2017-Oct-10 10:00N 36°39' W 011°49'613.1
2017-Oct-10 09:30N 36°38' W 011°41'713.2
2017-Oct-10 09:00N 36°36' W 011°33'713.5
2017-Oct-10 08:30N 36°34' W 011°25'713.4
2017-Oct-10 08:00N 36°33' W 011°17'713.6
2017-Oct-10 07:30N 36°31' W 011°09'713.4
2017-Oct-10 07:00N 36°30' W 011°01'713.5
2017-Oct-10 06:30N 36°28' W 010°52'713.8
2017-Oct-10 06:00N 36°27' W 010°44'713.8
2017-Oct-10 05:30N 36°25' W 010°36'713.7
2017-Oct-10 05:00N 36°23' W 010°27'713.5
2017-Oct-10 04:31N 36°22' W 010°19'713.8
2017-Oct-10 04:00N 36°20' W 010°11'713.9
2017-Oct-10 03:30N 36°19' W 010°03'714.0
2017-Oct-10 03:00N 36°17' W 009°54'714.1
2017-Oct-10 02:31N 36°15' W 009°46'714.0
2017-Oct-10 02:01N 36°13' W 009°37'713.6
2017-Oct-10 01:31N 36°12' W 009°29'713.6
2017-Oct-10 01:00N 36°11' W 009°21'713.7
2017-Oct-10 00:30N 36°09' W 009°12'713.5
2017-Oct-10 00:00N 36°09' W 009°04'713.3
2017-Oct-09 23:28N 36°08' W 008°55'713.8
2017-Oct-09 22:58N 36°08' W 008°47'3013.8
2017-Oct-09 20:51N 36°05' W 008°10'513.8
2017-Oct-09 20:30N 36°05' W 008°05'714.1
2017-Oct-09 20:01N 36°05' W 007°56'714.2
2017-Oct-09 19:30N 36°04' W 007°47'714.0
2017-Oct-09 19:00N 36°03' W 007°39'714.2
2017-Oct-09 18:30N 36°03' W 007°30'714.2
2017-Oct-09 18:00N 36°02' W 007°21'714.1
2017-Oct-09 17:31N 36°02' W 007°12'714.3
2017-Oct-09 17:00N 36°02' W 007°03'1414.2
2017-Oct-09 16:01N 36°01' W 006°46'29610.0
2017-Oct-08 10:25N 37°13' W 000°48'512.7
2017-Oct-08 10:00N 37°16' W 000°43'19012.2
2017-Oct-07 18:20N 39°18' E 002°24'412.1
2017-Oct-07 18:00N 39°21' E 002°27'612.2
2017-Oct-07 17:30N 39°25' E 002°32'612.3
2017-Oct-07 17:00N 39°30' E 002°37'3 6.5
2017-Oct-07 16:30N 39°34' E 002°38'0 0.5
2017-Oct-07 15:59N 39°34' E 002°38'0 0.0
2017-Oct-07 15:29N 39°34' E 002°38'0 0.0
2017-Oct-07 14:59N 39°34' E 002°38'0 0.0
2017-Oct-07 14:29N 39°34' E 002°38'0 0.0
2017-Oct-07 13:59N 39°34' E 002°38'0 0.0
2017-Oct-07 13:29N 39°34' E 002°38'0 0.0
2017-Oct-07 12:59N 39°34' E 002°38'0 0.0
2017-Oct-07 12:29N 39°34' E 002°38'0 0.0
2017-Oct-07 11:59N 39°34' E 002°38'0 0.0
2017-Oct-07 11:29N 39°34' E 002°38'0 0.0
2017-Oct-07 10:59N 39°34' E 002°38'0 0.0
2017-Oct-07 10:29N 39°34' E 002°38'0 0.0
2017-Oct-07 09:59N 39°34' E 002°38'0 0.0
2017-Oct-07 09:29N 39°34' E 002°38'0 0.0
2017-Oct-07 08:59N 39°34' E 002°38'0 0.0
2017-Oct-07 08:29N 39°34' E 002°38'0 0.0
2017-Oct-07 07:59N 39°34' E 002°38'0 0.0
2017-Oct-07 07:29N 39°34' E 002°38'0 0.0
2017-Oct-07 06:59N 39°34' E 002°38'0 0.0
2017-Oct-07 06:29N 39°34' E 002°38'0 0.0
2017-Oct-07 05:59N 39°34' E 002°38'0 0.0
2017-Oct-07 05:29N 39°34' E 002°38'0 0.0
2017-Oct-07 04:59N 39°34' E 002°38'0 0.0
2017-Oct-07 04:29N 39°34' E 002°38'0 0.0
2017-Oct-07 03:59N 39°34' E 002°38'0 0.0
2017-Oct-07 03:29N 39°34' E 002°38'0 0.0
2017-Oct-07 02:59N 39°34' E 002°38'0 0.0
2017-Oct-07 02:29N 39°34' E 002°38'0 0.0
2017-Oct-07 01:59N 39°34' E 002°38'0 0.0
2017-Oct-07 01:29N 39°34' E 002°38'0 0.0
2017-Oct-07 00:59N 39°34' E 002°38'0 0.0
2017-Oct-07 00:29N 39°34' E 002°38'0 0.0
2017-Oct-06 23:59N 39°34' E 002°38'0 0.0
2017-Oct-06 23:29N 39°34' E 002°38'0 0.0
2017-Oct-06 22:59N 39°34' E 002°38'0 0.0
2017-Oct-06 22:29N 39°34' E 002°38'0 0.0
2017-Oct-06 21:59N 39°34' E 002°38'0 0.0
2017-Oct-06 21:29N 39°34' E 002°38'0 0.0
2017-Oct-06 20:59N 39°34' E 002°38'0 0.0
2017-Oct-06 20:29N 39°34' E 002°38'0 0.0
2017-Oct-06 19:59N 39°34' E 002°38'0 0.0
2017-Oct-06 19:29N 39°34' E 002°38'0 0.0
2017-Oct-06 18:59N 39°34' E 002°38'0 0.0
2017-Oct-06 18:29N 39°34' E 002°38'0 0.0
2017-Oct-06 17:56N 39°34' E 002°38'0 0.0
2017-Oct-06 17:29N 39°34' E 002°38'0 0.0
2017-Oct-06 16:59N 39°34' E 002°38'0 0.0
2017-Oct-06 16:29N 39°34' E 002°38'0 0.1
2017-Oct-06 15:59N 39°34' E 002°38'0 0.1
2017-Oct-06 15:29N 39°34' E 002°38'0 0.0
2017-Oct-06 14:59N 39°34' E 002°38'0 0.0
2017-Oct-06 14:29N 39°34' E 002°38'0 0.0
2017-Oct-06 13:59N 39°34' E 002°38'0 0.0
2017-Oct-06 13:29N 39°34' E 002°38'0 0.0
2017-Oct-06 12:59N 39°34' E 002°38'0 0.0
2017-Oct-06 12:29N 39°34' E 002°38'0 0.0
2017-Oct-06 11:59N 39°34' E 002°38'0 0.0
2017-Oct-06 11:29N 39°34' E 002°38'0 0.0
2017-Oct-06 10:59N 39°34' E 002°38'0 0.0
2017-Oct-06 10:29N 39°34' E 002°38'0 0.0
2017-Oct-06 09:59N 39°34' E 002°38'0 0.0
2017-Oct-06 09:29N 39°34' E 002°38'0 0.0
2017-Oct-06 08:59N 39°34' E 002°38'0 0.0
2017-Oct-06 08:29N 39°34' E 002°38'0 0.0
2017-Oct-06 07:59N 39°34' E 002°38'0 0.0
2017-Oct-06 07:29N 39°34' E 002°38'0 0.0
2017-Oct-06 06:59N 39°34' E 002°38'0 0.0
2017-Oct-06 06:29N 39°34' E 002°38'0 0.0
2017-Oct-06 05:59N 39°34' E 002°38'0 0.0
2017-Oct-06 05:29N 39°34' E 002°38'0 0.0
2017-Oct-06 04:59N 39°34' E 002°38'0 0.0
2017-Oct-06 04:29N 39°34' E 002°38'0 0.0
2017-Oct-06 03:59N 39°34' E 002°38'0 0.0
2017-Oct-06 03:29N 39°34' E 002°38'0 0.0
2017-Oct-06 02:59N 39°34' E 002°38'0 0.0
2017-Oct-06 02:29N 39°34' E 002°38'0 0.0
2017-Oct-06 01:59N 39°34' E 002°38'0 0.0
2017-Oct-06 01:29N 39°34' E 002°38'0 0.0
2017-Oct-06 00:56N 39°34' E 002°38'0 0.0
2017-Oct-06 00:29N 39°34' E 002°38'0 0.0
2017-Oct-05 23:59N 39°34' E 002°38'  

Dump ship's entire track history